Time;durP1;ratioP1;P1;durP2;ratioP2;P2;SDS_P1;SDS_P2;PMS_P1;PMS_P2;Temp;Humidity;BMP_temperature;BMP_pressure;BME280_temperature;BME280_humidity;BME280_pressure;Samples;Min_cycle;Max_cycle;Signal;HPM_P1;HPM_P2
2021/05/10 00:02:09;;;;;;;3.00;2.70;;;21.90;48.30;;;;;;5032385;28;20414;-81
2021/05/10 00:04:35;;;;;;;2.30;2.00;;;21.90;48.20;;;;;;5051434;28;20485;-81
2021/05/10 00:07:04;;;;;;;2.47;2.03;;;21.90;48.20;;;;;;5034353;28;20429;-80
2021/05/10 00:09:32;;;;;;;2.40;2.20;;;21.90;48.10;;;;;;5048815;28;20185;-81
2021/05/10 00:12:01;;;;;;;2.30;2.00;;;21.90;48.20;;;;;;5032839;28;20434;-81
2021/05/10 00:14:40;;;;;;;2.50;1.87;;;21.90;48.20;;;;;;5032698;28;20427;-81
2021/05/10 00:17:07;;;;;;;1.90;1.70;;;21.90;48.20;;;;;;5033525;28;20443;-81
2021/05/10 00:19:32;;;;;;;2.87;2.13;;;21.90;48.20;;;;;;5031513;28;20499;-81
2021/05/10 00:21:58;;;;;;;1.80;1.63;;;21.90;48.10;;;;;;5013060;28;20434;-81
2021/05/10 00:24:27;;;;;;;2.67;1.90;;;21.90;48.10;;;;;;5029627;28;20196;-81
2021/05/10 00:26:54;;;;;;;2.00;1.80;;;21.90;48.10;;;;;;5011893;28;20439;-81
2021/05/10 00:29:20;;;;;;;2.30;2.10;;;21.90;48.10;;;;;;5011084;28;20539;-81
2021/05/10 00:31:46;;;;;;;2.33;2.13;;;21.90;48.20;;;;;;5028364;28;20510;-81
2021/05/10 00:34:14;;;;;;;2.00;1.83;;;22.00;48.20;;;;;;5027942;28;20172;-81
2021/05/10 00:36:39;;;;;;;3.03;1.93;;;22.00;48.10;;;;;;5009806;28;20558;-81
2021/05/10 00:39:06;;;;;;;2.43;2.23;;;22.00;48.10;;;;;;5009908;28;20514;-81
2021/05/10 00:41:33;;;;;;;2.70;2.50;;;22.00;48.70;;;;;;5027924;28;20183;-81
2021/05/10 00:43:59;;;;;;;2.37;2.17;;;22.00;48.10;;;;;;5047471;28;20473;-81
2021/05/10 00:46:26;;;;;;;2.50;2.03;;;22.00;48.10;;;;;;5046494;28;20748;-81
2021/05/10 00:48:52;;;;;;;3.30;2.20;;;22.00;48.00;;;;;;5029255;28;20183;-82
2021/05/10 00:51:18;;;;;;;2.53;2.33;;;21.90;47.90;;;;;;5047580;28;20557;-81
2021/05/10 00:53:44;;;;;;;2.43;2.13;;;21.90;47.90;;;;;;5029435;28;20183;-81
2021/05/10 00:56:10;;;;;;;2.23;2.03;;;21.90;47.90;;;;;;5028832;28;20494;-81
2021/05/10 00:58:37;;;;;;;2.20;2.00;;;21.90;48.50;;;;;;5049502;28;20415;-81
2021/05/10 01:01:06;;;;;;;2.73;2.20;;;21.90;47.90;;;;;;5025932;28;20418;-81
2021/05/10 01:03:33;;;;;;;4.27;2.10;;;21.90;47.90;;;;;;5048245;28;20441;-81
2021/05/10 01:05:58;;;;;;;2.33;2.13;;;21.90;47.90;;;;;;5034064;28;20423;-80
2021/05/10 01:08:24;;;;;;;2.50;2.23;;;21.90;47.90;;;;;;5050272;28;20437;-80
2021/05/10 01:10:50;;;;;;;3.77;2.37;;;21.90;48.00;;;;;;5048412;28;20194;-81
2021/05/10 01:13:17;;;;;;;3.90;2.97;;;21.90;47.90;;;;;;5034038;28;20180;-81
2021/05/10 01:15:51;;;;;;;2.50;2.30;;;21.90;47.90;;;;;;5031436;28;20476;-81
2021/05/10 01:18:19;;;;;;;2.53;2.33;;;21.90;47.90;;;;;;5047329;28;20422;-82
2021/05/10 01:20:47;;;;;;;2.70;2.50;;;21.90;47.90;;;;;;5045085;28;20433;-82
2021/05/10 01:23:14;;;;;;;2.30;2.10;;;21.90;47.90;;;;;;5045871;28;20410;-81
2021/05/10 01:25:40;;;;;;;2.93;2.13;;;21.90;47.90;;;;;;5045817;28;20880;-81
2021/05/10 01:28:06;;;;;;;3.20;2.17;;;21.90;47.90;;;;;;5027722;28;20762;-82
2021/05/10 01:30:38;;;;;;;2.30;2.10;;;21.90;47.90;;;;;;5045608;28;20410;-81
2021/05/10 01:33:05;;;;;;;2.93;2.10;;;21.90;47.90;;;;;;5027967;28;20286;-82
2021/05/10 01:35:38;;;;;;;2.80;2.20;;;21.90;47.90;;;;;;5027595;28;20450;-82
2021/05/10 01:38:05;;;;;;;3.07;2.53;;;21.90;47.90;;;;;;5045838;28;20391;-81
2021/05/10 01:40:31;;;;;;;2.80;2.50;;;21.80;47.80;;;;;;5045173;28;20407;-82
2021/05/10 01:42:58;;;;;;;2.43;2.13;;;21.90;47.90;;;;;;5027395;28;20414;-81
2021/05/10 01:45:23;;;;;;;2.80;2.40;;;21.80;47.80;;;;;;5045510;28;20489;-82
2021/05/10 01:47:58;;;;;;;2.77;2.00;;;21.90;47.90;;;;;;5044493;28;20402;-81
2021/05/10 01:50:25;;;;;;;2.90;2.40;;;21.80;47.90;;;;;;5047500;28;20179;-81
2021/05/10 01:52:51;;;;;;;2.33;2.13;;;21.90;47.90;;;;;;5029051;28;20429;-81
2021/05/10 01:55:18;;;;;;;2.77;2.53;;;21.80;47.90;;;;;;5029075;28;21074;-81
2021/05/10 01:57:54;;;;;;;3.23;2.47;;;21.70;47.80;;;;;;5046432;28;20409;-81
2021/05/10 02:00:26;;;;;;;3.80;2.33;;;21.80;47.90;;;;;;5046255;28;20407;-82
2021/05/10 02:02:52;;;;;;;2.70;2.13;;;21.80;47.90;;;;;;5045799;28;20461;-82
2021/05/10 02:05:19;;;;;;;3.07;2.50;;;21.80;47.90;;;;;;5046209;28;20426;-81
2021/05/10 02:07:48;;;;;;;3.50;2.57;;;21.80;47.90;;;;;;5027441;28;20772;-81
2021/05/10 02:10:18;;;;;;;3.83;3.47;;;21.80;47.90;;;;;;5044136;28;20417;-81
2021/05/10 02:13:02;;;;;;;3.20;2.70;;;21.80;48.00;;;;;;5025804;28;20418;-82
2021/05/10 02:15:30;;;;;;;2.83;2.00;;;21.80;47.90;;;;;;5044796;28;20446;-81
2021/05/10 02:17:56;;;;;;;3.03;2.77;;;21.80;48.00;;;;;;5044327;28;20416;-81
2021/05/10 02:20:24;;;;;;;2.77;2.57;;;21.80;48.60;;;;;;5027030;28;20413;-80
2021/05/10 02:23:02;;;;;;;2.57;2.30;;;21.80;48.00;;;;;;5027239;28;20489;-81
2021/05/10 02:25:30;;;;;;;2.80;2.47;;;21.80;48.00;;;;;;5023245;28;20939;-81
2021/05/10 02:27:57;;;;;;;3.80;2.67;;;21.70;48.00;;;;;;5023751;28;20418;-81
2021/05/10 02:30:25;;;;;;;2.90;2.60;;;21.70;48.00;;;;;;5023662;28;20410;-82
2021/05/10 02:32:52;;;;;;;2.60;2.33;;;21.80;48.10;;;;;;5006417;28;20415;-81
2021/05/10 02:35:19;;;;;;;3.20;2.07;;;21.80;48.00;;;;;;5006297;28;20463;-82
2021/05/10 02:37:45;;;;;;;2.90;2.53;;;21.70;47.90;;;;;;5032543;28;20410;-82
2021/05/10 02:40:11;;;;;;;2.97;2.67;;;21.80;48.10;;;;;;5043823;28;20413;-81
2021/05/10 02:42:37;;;;;;;3.87;2.43;;;21.70;48.00;;;;;;5041582;28;20410;-82
2021/05/10 02:45:05;;;;;;;3.67;2.70;;;21.70;48.00;;;;;;5041484;28;20413;-82
2021/05/10 02:47:31;;;;;;;3.10;2.30;;;21.70;48.00;;;;;;5026657;28;20187;-83
2021/05/10 02:53:19;;;;;;;4.30;2.60;;;21.80;48.10;;;;;;5045490;28;20163;-83
2021/05/10 02:55:45;;;;;;;3.20;2.47;;;21.70;48.10;;;;;;5027813;28;20964;-83
2021/05/10 02:58:10;;;;;;;3.13;2.83;;;21.70;48.10;;;;;;5023618;28;20421;-82
2021/05/10 03:00:36;;;;;;;2.80;2.27;;;21.70;48.10;;;;;;5028092;28;20180;-84
2021/05/10 03:03:02;;;;;;;4.77;2.57;;;21.70;48.10;;;;;;5026420;28;20176;-83
2021/05/10 03:05:28;;;;;;;2.70;2.30;;;21.70;48.10;;;;;;5022847;28;20187;-82
2021/05/10 03:07:54;;;;;;;3.53;2.50;;;21.70;48.00;;;;;;5041655;28;20919;-83
2021/05/10 03:10:24;;;;;;;2.93;2.50;;;21.70;48.00;;;;;;5024003;28;20199;-83
2021/05/10 03:12:50;;;;;;;2.67;2.30;;;21.70;48.00;;;;;;5023897;28;20490;-83
2021/05/10 03:15:19;;;;;;;2.90;2.60;;;21.70;48.00;;;;;;5040729;28;20971;-82
2021/05/10 03:17:46;;;;;;;2.17;1.97;;;21.70;48.00;;;;;;5022921;28;20411;-83
2021/05/10 03:20:14;;;;;;;3.23;2.80;;;21.70;48.00;;;;;;5023280;28;20481;-82
2021/05/10 03:22:41;;;;;;;2.43;2.23;;;21.70;48.00;;;;;;5040472;28;20410;-83
2021/05/10 03:25:08;;;;;;;3.07;2.50;;;21.60;47.90;;;;;;5022391;28;20430;-83
2021/05/10 03:27:40;;;;;;;2.90;2.37;;;21.60;48.50;;;;;;5022792;28;20419;-83
2021/05/10 03:30:12;;;;;;;3.13;2.77;;;21.60;47.90;;;;;;5041030;28;20406;-83
2021/05/10 03:32:38;;;;;;;4.60;2.70;;;21.60;47.90;;;;;;5041439;28;20425;-83
2021/05/10 03:35:05;;;;;;;2.73;2.50;;;21.60;47.90;;;;;;5023047;28;20827;-83
2021/05/10 03:37:31;;;;;;;2.93;2.40;;;21.60;48.50;;;;;;5023566;28;20419;-83
2021/05/10 03:39:58;;;;;;;3.30;2.40;;;21.60;47.90;;;;;;5025871;28;20449;-82
2021/05/10 03:42:24;;;;;;;4.10;2.80;;;21.60;47.90;;;;;;5021768;28;20449;-84
2021/05/10 03:44:49;;;;;;;4.43;2.87;;;21.60;47.90;;;;;;5035534;28;20417;-83
2021/05/10 03:47:15;;;;;;;3.13;2.83;;;21.60;47.90;;;;;;5045564;28;20179;-82
2021/05/10 03:49:41;;;;;;;2.70;2.50;;;21.60;47.90;;;;;;5047336;28;20241;-83
2021/05/10 03:52:06;;;;;;;4.20;2.40;;;21.60;47.90;;;;;;5031300;28;20211;-83
2021/05/10 03:54:32;;;;;;;2.73;2.53;;;21.60;47.90;;;;;;5028189;28;20262;-83
2021/05/10 03:56:59;;;;;;;2.40;2.20;;;21.60;47.90;;;;;;5050243;28;20203;-82
2021/05/10 03:59:26;;;;;;;4.33;2.90;;;21.60;48.50;;;;;;5048904;28;20163;-82
2021/05/10 04:01:54;;;;;;;3.53;2.30;;;21.60;47.80;;;;;;5028729;28;20472;-82
2021/05/10 04:04:28;;;;;;;2.63;2.43;;;21.60;47.80;;;;;;5046323;28;20421;-81
2021/05/10 04:14:38;;;;;;;3.40;3.00;;;21.60;47.80;;;;;;5043458;28;20398;-83
2021/05/10 04:17:04;;;;;;;2.83;2.10;;;21.60;47.80;;;;;;5042965;28;20450;-83
2021/05/10 04:19:29;;;;;;;2.70;2.30;;;21.60;47.80;;;;;;5041455;28;20178;-83
2021/05/10 04:21:55;;;;;;;2.47;2.20;;;21.60;47.80;;;;;;5042573;28;20183;-84
2021/05/10 04:24:21;;;;;;;2.70;2.50;;;21.60;47.80;;;;;;5041907;28;20198;-83
2021/05/10 04:30:07;;;;;;;2.87;2.30;;;21.70;47.80;;;;;;5042350;28;20182;-83
2021/05/10 04:32:32;;;;;;;2.57;2.37;;;21.60;47.70;;;;;;5024926;28;20406;-84
2021/05/10 04:34:58;;;;;;;2.93;2.63;;;21.60;47.70;;;;;;5042027;28;20410;-85
2021/05/10 04:37:24;;;;;;;2.90;2.23;;;21.70;47.80;;;;;;5037243;28;20218;-84
2021/05/10 04:39:50;;;;;;;2.70;1.93;;;21.70;47.80;;;;;;5024475;28;20176;-82
2021/05/10 04:42:16;;;;;;;2.47;2.07;;;21.70;47.80;;;;;;5024370;28;20249;-82
2021/05/10 04:44:42;;;;;;;2.60;2.40;;;21.80;47.80;;;;;;5042119;28;20896;-83
2021/05/10 04:47:07;;;;;;;2.43;2.20;;;21.80;47.90;;;;;;5042469;28;20446;-83
2021/05/10 04:49:34;;;;;;;2.60;2.23;;;21.80;47.80;;;;;;5025512;28;20267;-83
2021/05/10 04:52:00;;;;;;;3.30;2.70;;;21.80;47.80;;;;;;5045296;28;20199;-83
2021/05/10 04:54:26;;;;;;;1.90;1.80;;;21.80;47.80;;;;;;5045224;28;20419;-82
2021/05/10 04:56:52;;;;;;;2.67;2.17;;;21.80;47.90;;;;;;5044078;28;20226;-82
2021/05/10 04:59:17;;;;;;;2.90;2.47;;;21.90;47.90;;;;;;5044340;28;20180;-83
2021/05/10 05:02:00;;;;;;;2.70;2.50;;;21.80;47.80;;;;;;5026687;28;20451;-83
2021/05/10 05:04:26;;;;;;;2.17;1.97;;;21.90;47.90;;;;;;5027165;28;20211;-83
2021/05/10 05:06:52;;;;;;;3.20;2.17;;;21.90;47.90;;;;;;5043426;28;20418;-83
2021/05/10 05:09:18;;;;;;;2.33;1.97;;;21.90;47.80;;;;;;5043809;28;20184;-83
2021/05/10 05:11:43;;;;;;;2.70;2.50;;;22.00;47.90;;;;;;5026042;28;20176;-83
2021/05/10 05:14:09;;;;;;;2.30;2.00;;;22.00;47.90;;;;;;5043950;28;20164;-83
2021/05/10 05:23:44;;;;;;;2.43;1.90;;;22.00;47.70;;;;;;5043992;28;20421;-83
2021/05/10 05:26:10;;;;;;;2.53;1.90;;;22.00;47.80;;;;;;5043951;28;20407;-83
2021/05/10 05:28:36;;;;;;;1.70;1.60;;;22.00;47.80;;;;;;5025730;28;20274;-83
2021/05/10 05:31:02;;;;;;;3.10;1.90;;;22.00;47.70;;;;;;5025507;28;20305;-83
2021/05/10 05:33:28;;;;;;;2.30;2.10;;;22.10;47.80;;;;;;5025893;28;20557;-84
2021/05/10 05:35:55;;;;;;;1.77;1.67;;;22.10;47.70;;;;;;5044050;28;20815;-82
2021/05/10 05:38:20;;;;;;;2.20;1.90;;;22.10;47.70;;;;;;5025804;28;20414;-84
2021/05/10 05:40:48;;;;;;;2.10;1.90;;;22.10;47.70;;;;;;5026206;28;20426;-83
2021/05/10 05:43:17;;;;;;;2.40;1.73;;;22.10;47.70;;;;;;5024518;28;20186;-82
2021/05/10 05:45:44;;;;;;;2.17;1.83;;;22.10;47.70;;;;;;5042936;28;20484;-83
2021/05/10 05:48:11;;;;;;;2.30;2.10;;;22.10;47.60;;;;;;5042609;28;20441;-83
2021/05/10 05:50:38;;;;;;;2.40;2.20;;;22.20;47.70;;;;;;5041989;28;20501;-83
2021/05/10 05:53:05;;;;;;;2.37;2.17;;;22.20;47.70;;;;;;5044277;28;20409;-81
2021/05/10 05:55:31;;;;;;;1.57;1.47;;;22.20;47.70;;;;;;5028591;28;20854;-81
2021/05/10 05:58:00;;;;;;;2.60;1.77;;;22.20;47.70;;;;;;5046320;28;20411;-81
2021/05/10 06:00:27;;;;;;;2.53;2.07;;;22.20;47.70;;;;;;5046553;28;20433;-82
2021/05/10 06:02:53;;;;;;;1.80;1.70;;;22.20;47.70;;;;;;5046605;28;20406;-82
2021/05/10 06:05:19;;;;;;;2.50;2.07;;;22.20;47.70;;;;;;5028811;28;20501;-82
2021/05/10 06:07:51;;;;;;;2.10;1.90;;;22.20;47.70;;;;;;5046000;28;20172;-82
2021/05/10 06:10:21;;;;;;;2.93;2.37;;;22.20;47.70;;;;;;5045396;28;20191;-81
2021/05/10 06:12:49;;;;;;;2.70;1.73;;;22.20;47.70;;;;;;5050063;28;20429;-81
2021/05/10 06:15:19;;;;;;;2.60;2.40;;;22.20;47.70;;;;;;5046611;28;20481;-82
2021/05/10 06:17:45;;;;;;;2.00;1.80;;;22.20;47.70;;;;;;5028050;28;20427;-81
2021/05/10 06:20:12;;;;;;;2.03;1.73;;;22.30;47.80;;;;;;5028010;28;20422;-82
2021/05/10 06:22:39;;;;;;;1.70;1.60;;;22.30;47.80;;;;;;5045952;28;20433;-82
2021/05/10 06:25:14;;;;;;;2.10;1.90;;;22.30;47.80;;;;;;5028105;28;20432;-81
2021/05/10 06:27:39;;;;;;;2.43;2.10;;;22.30;47.80;;;;;;5045764;28;20417;-83
2021/05/10 06:30:07;;;;;;;2.53;1.90;;;22.30;47.80;;;;;;5037864;28;20418;-82
2021/05/10 06:32:33;;;;;;;2.40;2.10;;;22.30;47.80;;;;;;5020305;28;20195;-81
2021/05/10 06:34:58;;;;;;;2.10;1.60;;;22.30;47.90;;;;;;5049202;28;20417;-82
2021/05/10 06:37:28;;;;;;;2.27;1.90;;;22.30;47.90;;;;;;5036907;28;20467;-81
2021/05/10 06:39:55;;;;;;;3.40;2.13;;;22.40;47.90;;;;;;5030868;28;20182;-82
2021/05/10 06:42:21;;;;;;;2.00;1.80;;;22.30;47.80;;;;;;5026849;28;20426;-81
2021/05/10 06:44:46;;;;;;;1.70;1.60;;;22.30;47.80;;;;;;5041400;28;20519;-82
2021/05/10 06:47:12;;;;;;;2.30;2.10;;;22.30;47.90;;;;;;5045604;28;20196;-82
2021/05/10 06:49:38;;;;;;;2.20;2.00;;;22.30;47.90;;;;;;5045364;28;20194;-81
2021/05/10 06:52:04;;;;;;;2.60;1.77;;;22.30;47.90;;;;;;5045848;28;20537;-82
2021/05/10 06:54:30;;;;;;;2.53;1.93;;;22.30;47.90;;;;;;5062328;28;20190;-82
2021/05/10 06:56:57;;;;;;;2.17;1.97;;;22.30;47.90;;;;;;5033782;28;20457;-82
2021/05/10 06:59:23;;;;;;;2.30;2.10;;;22.30;47.90;;;;;;5045128;28;20202;-82
2021/05/10 07:01:48;;;;;;;2.40;1.77;;;22.30;48.00;;;;;;5027967;28;20422;-81
2021/05/10 07:04:14;;;;;;;2.70;1.93;;;22.30;48.20;;;;;;5045239;28;20242;-81
2021/05/10 07:06:43;;;;;;;1.97;1.87;;;22.30;48.00;;;;;;5050846;28;20180;-81
2021/05/10 07:09:11;;;;;;;2.23;1.50;;;22.40;48.10;;;;;;5044190;28;20482;-81
2021/05/10 07:11:37;;;;;;;2.17;1.80;;;22.40;48.10;;;;;;5038027;28;20415;-82
2021/05/10 07:14:03;;;;;;;2.00;1.80;;;22.30;48.00;;;;;;5057219;28;20417;-81
2021/05/10 07:16:29;;;;;;;2.43;1.70;;;22.30;48.10;;;;;;5033648;28;20449;-82
2021/05/10 07:19:00;;;;;;;1.50;1.40;;;22.40;48.20;;;;;;5040686;28;20444;-82
2021/05/10 07:21:29;;;;;;;1.70;1.60;;;22.40;48.10;;;;;;5040703;28;20178;-82
2021/05/10 07:23:55;;;;;;;2.00;1.70;;;22.30;48.10;;;;;;5042566;28;20452;-82
2021/05/10 07:26:21;;;;;;;1.70;1.50;;;22.30;48.10;;;;;;5036794;28;20425;-81
2021/05/10 07:29:37;;;;;;;2.37;1.83;;;22.30;48.10;;;;;;5051734;28;20229;-81
2021/05/10 07:32:03;;;;;;;2.20;1.90;;;22.40;48.20;;;;;;5046155;28;20168;-82
2021/05/10 07:34:29;;;;;;;1.50;1.37;;;22.30;48.20;;;;;;5048437;28;20410;-82
2021/05/10 07:36:55;;;;;;;1.80;1.70;;;22.30;48.20;;;;;;5027093;28;20223;-81
2021/05/10 07:39:22;;;;;;;1.67;1.57;;;22.30;48.20;;;;;;5048776;28;20903;-82
2021/05/10 07:41:48;;;;;;;1.73;1.63;;;22.30;48.50;;;;;;5045037;28;20881;-82
2021/05/10 07:44:14;;;;;;;2.00;1.50;;;22.30;48.20;;;;;;5030959;28;20418;-82
2021/05/10 07:46:40;;;;;;;1.87;1.70;;;22.30;48.20;;;;;;5048902;28;20218;-81
2021/05/10 07:49:06;;;;;;;2.00;1.80;;;22.30;48.20;;;;;;5038433;28;20426;-81
2021/05/10 07:51:33;;;;;;;1.80;1.67;;;22.40;48.30;;;;;;5068724;28;20175;-81
2021/05/10 07:53:58;;;;;;;3.27;2.10;;;22.40;48.30;;;;;;5036934;28;20258;-82
2021/05/10 07:56:24;;;;;;;1.90;1.70;;;22.40;48.40;;;;;;5048403;28;20483;-81
2021/05/10 07:58:52;;;;;;;2.20;1.77;;;22.40;48.40;;;;;;5068562;28;20178;-81
2021/05/10 08:01:18;;;;;;;2.40;2.20;;;22.40;48.40;;;;;;5051693;28;20175;-81
2021/05/10 08:03:45;;;;;;;6.23;1.70;;;22.40;48.40;;;;;;5066807;28;20468;-82
2021/05/10 08:06:12;;;;;;;2.93;1.50;;;22.40;48.40;;;;;;5066748;28;20440;-82
2021/05/10 08:08:40;;;;;;;1.57;1.47;;;22.40;48.50;;;;;;5066347;28;20417;-82
2021/05/10 08:11:08;;;;;;;3.00;2.00;;;22.40;48.50;;;;;;5067227;28;20413;-82
2021/05/10 08:13:34;;;;;;;1.63;1.40;;;22.40;48.50;;;;;;5048251;28;20429;-82
2021/05/10 08:19:22;;;;;;;2.20;1.93;;;22.40;48.50;;;;;;5065954;28;20170;-81
2021/05/10 08:21:47;;;;;;;2.40;1.53;;;22.40;48.50;;;;;;5066314;28;20405;-82
2021/05/10 08:24:13;;;;;;;2.00;1.63;;;22.40;48.60;;;;;;5047491;28;20190;-82
2021/05/10 08:26:39;;;;;;;2.00;1.80;;;22.40;48.60;;;;;;5065543;28;20274;-82
2021/05/10 08:29:05;;;;;;;2.90;1.40;;;22.40;48.60;;;;;;5064873;28;20179;-82
2021/05/10 08:31:30;;;;;;;1.97;1.53;;;22.40;48.70;;;;;;5064058;28;20207;-83
2021/05/10 08:34:45;;;;;;;1.70;1.40;;;22.40;48.70;;;;;;5046419;28;20182;-83
2021/05/10 08:37:11;;;;;;;1.70;1.53;;;22.40;48.60;;;;;;5045863;28;20226;-82
2021/05/10 08:39:36;;;;;;;2.17;1.97;;;22.30;48.60;;;;;;5046386;28;20471;-82
2021/05/10 08:42:02;;;;;;;2.70;1.70;;;22.40;48.70;;;;;;5045788;28;20175;-83
2021/05/10 08:44:28;;;;;;;1.70;1.60;;;22.40;48.70;;;;;;5046286;28;20175;-83
2021/05/10 08:46:54;;;;;;;1.60;1.50;;;22.40;48.70;;;;;;5049498;28;20660;-82
2021/05/10 08:49:21;;;;;;;1.70;1.60;;;22.40;48.70;;;;;;5067154;28;20170;-82
2021/05/10 08:51:48;;;;;;;2.20;1.40;;;22.40;48.60;;;;;;5067051;28;20213;-82
2021/05/10 08:54:19;;;;;;;2.30;1.63;;;22.40;48.70;;;;;;5066351;28;20405;-82
2021/05/10 08:56:45;;;;;;;3.10;1.63;;;22.40;48.70;;;;;;5049817;28;20449;-82
2021/05/10 08:59:12;;;;;;;1.87;1.70;;;22.40;48.80;;;;;;5049853;28;20520;-82
2021/05/10 09:01:57;;;;;;;1.50;1.40;;;22.40;48.70;;;;;;5049766;28;20420;-84
2021/05/10 09:04:28;;;;;;;1.90;1.50;;;22.40;48.60;;;;;;5046976;28;20934;-83
2021/05/10 09:07:10;;;;;;;2.70;1.73;;;22.40;48.70;;;;;;5067561;28;20410;-83
2021/05/10 09:10:05;;;;;;;1.83;1.50;;;22.40;48.70;;;;;;5047033;28;20437;-83
2021/05/10 09:12:45;;;;;;;2.03;1.43;;;22.40;48.60;;;;;;5063233;28;20420;-83
2021/05/10 09:15:24;;;;;;;1.60;1.40;;;22.40;48.80;;;;;;5063134;28;20421;-83
2021/05/10 09:17:51;;;;;;;2.20;1.80;;;22.40;48.80;;;;;;5063912;28;20409;-81
2021/05/10 09:20:22;;;;;;;1.97;1.77;;;22.40;48.80;;;;;;5064746;28;20435;-81
2021/05/10 09:22:49;;;;;;;1.97;1.80;;;22.40;48.80;;;;;;5047478;28;20807;-81
2021/05/10 09:25:15;;;;;;;1.53;1.43;;;22.40;48.80;;;;;;5064613;28;20421;-81
2021/05/10 09:27:43;;;;;;;2.00;1.80;;;22.40;48.80;;;;;;5064498;28;20413;-82
2021/05/10 09:30:18;;;;;;;1.93;1.50;;;22.40;48.80;;;;;;5046730;28;20417;-82
2021/05/10 09:32:52;;;;;;;2.10;1.50;;;22.40;48.70;;;;;;5065266;28;20404;-82
2021/05/10 09:35:27;;;;;;;1.50;1.40;;;22.40;48.80;;;;;;5064697;28;20394;-82
2021/05/10 09:38:05;;;;;;;1.73;1.57;;;22.40;48.80;;;;;;5064982;28;20405;-81
2021/05/10 09:40:43;;;;;;;5.20;1.50;;;22.40;48.80;;;;;;5065444;28;20386;-82
2021/05/10 09:43:11;;;;;;;2.50;1.80;;;22.40;48.80;;;;;;5045697;28;20417;-82
2021/05/10 09:45:43;;;;;;;1.80;1.70;;;22.40;48.80;;;;;;5064085;28;20781;-82
2021/05/10 09:48:17;;;;;;;1.70;1.50;;;22.40;48.90;;;;;;5064638;28;20397;-82
2021/05/10 09:50:53;;;;;;;2.73;1.80;;;22.40;48.80;;;;;;5060300;28;20418;-81
2021/05/10 09:53:40;;;;;;;1.80;1.70;;;22.40;48.80;;;;;;5028380;28;20854;-81
2021/05/10 09:59:01;;;;;;;1.83;1.63;;;22.40;48.80;;;;;;5043672;28;20474;-82
2021/05/10 10:01:45;;;;;;;1.53;1.37;;;22.40;48.90;;;;;;5013663;28;20434;-84
2021/05/10 10:04:12;;;;;;;1.80;1.50;;;22.40;49.40;;;;;;5017713;28;20461;-83
2021/05/10 10:09:45;;;;;;;1.57;1.47;;;22.40;48.80;;;;;;5026658;28;20429;-82
2021/05/10 10:12:17;;;;;;;1.87;1.60;;;22.40;48.90;;;;;;5028413;28;20426;-84
2021/05/10 10:14:43;;;;;;;1.67;1.47;;;22.40;48.90;;;;;;5025854;28;20214;-82
2021/05/10 10:17:11;;;;;;;3.50;1.60;;;22.40;48.90;;;;;;5024943;28;20457;-81
2021/05/10 10:19:37;;;;;;;3.87;1.90;;;22.40;48.80;;;;;;5020314;28;20418;-82
2021/05/10 10:22:03;;;;;;;2.30;2.10;;;22.40;48.90;;;;;;5040668;28;20402;-82
2021/05/10 10:24:31;;;;;;;3.40;1.47;;;22.40;48.80;;;;;;5039986;28;20442;-82
2021/05/10 10:27:00;;;;;;;2.90;1.70;;;22.50;48.90;;;;;;5022684;28;20456;-82
2021/05/10 10:29:28;;;;;;;4.80;1.53;;;22.40;48.90;;;;;;5037626;28;20419;-82
2021/05/10 10:31:55;;;;;;;8.93;2.13;;;22.40;48.80;;;;;;5025512;28;20430;-82
2021/05/10 10:34:29;;;;;;;2.30;1.67;;;22.40;48.80;;;;;;5025729;28;20418;-82
2021/05/10 10:37:01;;;;;;;1.70;1.50;;;22.40;48.80;;;;;;5020049;28;20467;-82
2021/05/10 10:39:32;;;;;;;2.60;1.80;;;22.40;48.80;;;;;;5043966;28;20428;-82
2021/05/10 10:42:01;;;;;;;3.30;1.90;;;22.40;48.80;;;;;;5040323;28;20427;-82
2021/05/10 10:44:42;;;;;;;3.20;1.77;;;22.40;48.90;;;;;;5038727;28;20452;-81
2021/05/10 10:47:11;;;;;;;2.57;1.63;;;22.40;48.90;;;;;;5039143;28;20406;-82
2021/05/10 10:49:44;;;;;;;3.67;1.70;;;22.40;48.90;;;;;;5027403;28;20422;-81
2021/05/10 10:52:23;;;;;;;2.47;1.70;;;22.40;48.90;;;;;;5044504;28;21007;-81
2021/05/10 10:55:15;;;;;;;2.50;1.60;;;22.40;48.80;;;;;;5041757;28;20419;-82
2021/05/10 10:57:41;;;;;;;2.23;2.03;;;22.40;48.90;;;;;;5043275;28;20414;-81
2021/05/10 11:00:09;;;;;;;2.87;2.20;;;22.40;48.80;;;;;;5038777;28;20507;-81
2021/05/10 11:02:46;;;;;;;4.80;1.90;;;22.40;48.80;;;;;;5037921;28;20442;-82
2021/05/10 11:05:17;;;;;;;3.17;1.93;;;22.50;48.90;;;;;;5026223;28;20521;-81
2021/05/10 11:08:04;;;;;;;3.00;1.57;;;22.40;48.90;;;;;;5045445;28;20403;-82
2021/05/10 11:10:55;;;;;;;2.30;1.60;;;22.40;48.80;;;;;;5031484;28;20415;-81
2021/05/10 11:13:29;;;;;;;2.20;1.70;;;22.40;48.90;;;;;;5047031;28;20460;-82
2021/05/10 11:16:14;;;;;;;3.57;2.10;;;22.40;48.90;;;;;;5047040;28;20512;-82
2021/05/10 11:18:48;;;;;;;4.10;2.03;;;22.40;48.90;;;;;;5047086;28;20390;-82
2021/05/10 11:21:23;;;;;;;3.00;2.07;;;22.40;49.00;;;;;;5048291;28;20398;-81
2021/05/10 11:23:52;;;;;;;5.67;3.07;;;22.40;49.00;;;;;;5030754;28;20437;-82
2021/05/10 11:26:43;;;;;;;6.27;3.27;;;22.40;49.10;;;;;;5046670;28;20402;-82
2021/05/10 11:29:29;;;;;;;7.37;3.77;;;22.40;49.00;;;;;;5046972;28;20399;-81
2021/05/10 11:31:57;;;;;;;13.30;6.40;;;22.40;49.00;;;;;;5030678;28;20486;-81
2021/05/10 11:34:36;;;;;;;16.10;7.00;;;22.40;49.10;;;;;;5045735;28;20410;-81
2021/05/10 11:37:03;;;;;;;16.20;6.70;;;22.50;49.20;;;;;;5027725;28;20509;-81
2021/05/10 11:39:31;;;;;;;17.47;7.00;;;22.40;49.00;;;;;;5026444;28;20532;-81
2021/05/10 11:42:01;;;;;;;16.53;8.30;;;22.40;49.10;;;;;;5044467;28;20402;-81
2021/05/10 11:44:36;;;;;;;20.87;6.90;;;22.50;49.20;;;;;;5045194;28;20410;-81
2021/05/10 11:47:12;;;;;;;21.47;9.63;;;22.50;49.30;;;;;;5026771;28;20880;-81
2021/05/10 11:49:52;;;;;;;22.10;8.73;;;22.50;49.30;;;;;;5027076;28;20765;-81
2021/05/10 11:52:19;;;;;;;24.43;8.33;;;22.50;49.30;;;;;;5045061;28;20433;-82
2021/05/10 11:54:59;;;;;;;20.47;8.40;;;22.50;49.40;;;;;;5045148;28;20411;-83
2021/05/10 11:57:31;;;;;;;26.40;8.20;;;22.50;49.40;;;;;;5027243;28;20477;-81
2021/05/10 12:02:26;;;;;;;22.13;8.57;;;22.50;49.50;;;;;;5045368;28;20422;-82
2021/05/10 12:04:58;;;;;;;18.53;8.33;;;22.50;49.50;;;;;;5027631;28;20433;-82
2021/05/10 12:07:26;;;;;;;21.87;8.10;;;22.50;49.60;;;;;;5048676;28;20410;-82
2021/05/10 12:10:04;;;;;;;18.47;8.67;;;22.50;49.60;;;;;;5049198;28;20417;-82
2021/05/10 12:12:44;;;;;;;19.50;8.40;;;22.50;49.60;;;;;;5049055;28;20821;-82
2021/05/10 12:15:16;;;;;;;21.93;7.70;;;22.50;49.70;;;;;;5050623;28;20405;-82
2021/05/10 12:17:44;;;;;;;19.47;7.67;;;22.50;49.60;;;;;;5034646;28;20448;-82
2021/05/10 12:20:12;;;;;;;19.43;7.30;;;22.50;49.70;;;;;;5031914;28;20421;-82
2021/05/10 12:22:46;;;;;;;20.07;8.33;;;22.50;49.70;;;;;;5032932;28;20406;-81
2021/05/10 12:25:21;;;;;;;15.67;6.80;;;22.50;49.70;;;;;;5051160;28;20422;-82
2021/05/10 12:28:10;;;;;;;17.40;7.00;;;22.50;49.80;;;;;;5031873;28;20501;-82
2021/05/10 12:30:45;;;;;;;18.97;7.17;;;22.50;49.70;;;;;;5052006;28;20406;-82
2021/05/10 12:33:17;;;;;;;17.70;7.10;;;22.50;49.80;;;;;;5032640;28;20429;-81
2021/05/10 12:35:44;;;;;;;14.90;6.70;;;22.50;49.80;;;;;;5050829;28;20449;-82
2021/05/10 12:38:10;;;;;;;21.67;8.70;;;22.50;49.80;;;;;;5049303;28;20410;-82
2021/05/10 12:40:41;;;;;;;22.50;7.10;;;22.50;49.90;;;;;;5031298;28;20457;-81
2021/05/10 12:43:18;;;;;;;14.27;6.13;;;22.50;49.90;;;;;;5031733;28;20172;-82
2021/05/10 12:45:59;;;;;;;16.87;7.30;;;22.50;49.90;;;;;;5030355;28;20422;-82
2021/05/10 12:48:39;;;;;;;17.97;7.40;;;22.50;50.00;;;;;;5031397;28;20419;-82
2021/05/10 12:51:10;;;;;;;15.23;6.60;;;22.50;49.90;;;;;;5020691;28;20434;-82
2021/05/10 12:53:48;;;;;;;14.90;5.80;;;22.50;50.00;;;;;;5044563;28;20450;-82
2021/05/10 12:56:16;;;;;;;12.20;5.77;;;22.60;50.00;;;;;;5011158;28;20990;-81
2021/05/10 12:58:46;;;;;;;11.00;6.40;;;22.50;49.90;;;;;;5044737;28;20519;-81
2021/05/10 13:01:22;;;;;;;13.53;6.17;;;22.50;50.00;;;;;;5011865;28;20415;-81
2021/05/10 13:04:03;;;;;;;11.00;5.83;;;22.60;50.00;;;;;;5011546;28;20411;-81
2021/05/10 13:06:34;;;;;;;17.40;6.50;;;22.60;49.90;;;;;;5028744;28;20411;-82
2021/05/10 13:09:00;;;;;;;12.93;6.40;;;22.60;50.00;;;;;;5029352;28;20494;-82
2021/05/10 13:11:36;;;;;;;11.57;5.57;;;22.60;50.00;;;;;;5012968;28;20423;-81
2021/05/10 13:36:41;;;;;;;8.20;4.83;;;22.50;50.00;;;;;;5028535;28;20526;-83
2021/05/10 13:42:23;;;;;;;13.83;5.53;;;22.50;49.90;;;;;;5027685;28;20455;-82
2021/05/10 13:44:50;;;;;;;6.83;4.30;;;22.50;50.00;;;;;;5028333;28;20464;-82
2021/05/10 13:47:15;;;;;;;10.43;4.93;;;22.50;50.00;;;;;;5010871;28;20419;-82
2021/05/10 13:49:41;;;;;;;7.50;4.83;;;22.60;50.00;;;;;;5013026;28;20530;-82
2021/05/10 13:52:07;;;;;;;10.17;4.30;;;22.60;50.00;;;;;;5030064;28;20190;-82
2021/05/10 13:54:33;;;;;;;12.30;4.80;;;22.60;50.00;;;;;;5028125;28;20176;-82
2021/05/10 13:56:59;;;;;;;9.10;4.23;;;22.60;50.00;;;;;;5028368;28;20189;-82